createdAt,value
2019-06-27T00:04:55.301Z,101109.47
2019-06-27T00:09:58.276Z,101103.19
2019-06-27T00:15:00.034Z,101103.27
2019-06-27T00:20:02.099Z,101095.44
2019-06-27T00:25:04.929Z,101103.89
2019-06-27T00:30:07.467Z,101116.70
2019-06-27T00:35:09.341Z,101120.20
2019-06-27T00:40:11.691Z,101117.27
2019-06-27T00:45:14.665Z,101123.66
2019-06-27T00:50:17.094Z,101118.44
2019-06-27T00:55:19.038Z,101133.20
2019-06-27T01:00:21.088Z,101133.58
2019-06-27T01:05:23.006Z,101138.41
2019-06-27T01:10:25.004Z,101149.16
2019-06-27T01:15:27.058Z,101154.48
2019-06-27T01:20:29.818Z,101158.61
2019-06-27T01:25:31.816Z,101165.66
2019-06-27T01:30:33.811Z,101165.53
2019-06-27T01:35:36.884Z,101175.67
2019-06-27T01:40:38.801Z,101165.48
2019-06-27T01:45:48.766Z,101175.83
2019-06-27T01:50:50.637Z,101175.87
2019-06-27T01:55:52.707Z,101188.30
2019-06-27T02:03:48.771Z,101192.55
2019-06-27T02:08:50.638Z,101205.27
2019-06-27T02:13:52.519Z,101205.89
2019-06-27T02:18:54.299Z,101208.62
2019-06-27T02:23:56.374Z,101212.53
2019-06-27T02:28:58.188Z,101214.91
2019-06-27T02:34:00.043Z,101213.72
2019-06-27T02:39:01.979Z,101218.19
2019-06-27T02:44:03.988Z,101212.41
2019-06-27T02:49:05.976Z,101216.52
2019-06-27T02:54:07.823Z,101231.05
2019-06-27T02:59:09.671Z,101230.65
2019-06-27T03:04:11.597Z,101232.23
2019-06-27T03:09:13.423Z,101230.45
2019-06-27T03:14:15.256Z,101234.53
2019-06-27T03:19:17.163Z,101240.70
2019-06-27T03:24:18.977Z,101252.80
2019-06-27T03:29:21.963Z,101245.97
2019-06-27T03:34:24.893Z,101248.59
2019-06-27T03:39:26.694Z,101266.61
2019-06-27T03:44:28.670Z,101267.06
2019-06-27T03:49:30.826Z,101270.98
2019-06-27T03:54:32.706Z,101276.28
2019-06-27T03:59:34.755Z,101278.19
2019-06-27T04:04:36.712Z,101269.03
2019-06-27T04:09:38.536Z,101274.16
2019-06-27T04:14:40.350Z,101269.67
2019-06-27T04:19:42.213Z,101272.30
2019-06-27T04:24:44.171Z,101275.89
2019-06-27T04:29:45.968Z,101280.66
2019-06-27T04:34:48.747Z,101270.63
2019-06-27T04:39:51.211Z,101282.02
2019-06-27T04:44:53.060Z,101277.51
2019-06-27T04:49:54.988Z,101275.95
2019-06-27T04:54:57.081Z,101282.54
2019-06-27T04:59:59.730Z,101284.95
2019-06-27T05:05:02.330Z,101287.65
2019-06-27T05:10:04.794Z,101281.50
2019-06-27T05:15:06.849Z,101293.36
2019-06-27T05:20:09.112Z,101296.53
2019-06-27T05:25:11.144Z,101286.41
2019-06-27T05:30:13.645Z,101293.59
2019-06-27T05:35:18.144Z,101298.11
2019-06-27T05:40:20.197Z,101296.47
2019-06-27T05:50:50.266Z,101311.77
2019-06-27T05:55:52.210Z,101312.70
2019-06-27T06:00:54.151Z,101303.75
2019-06-27T06:05:56.068Z,101317.19
2019-06-27T06:10:57.966Z,101323.55
2019-06-27T06:16:01.079Z,101327.03
2019-06-27T06:21:03.520Z,101316.99
2019-06-27T06:26:05.503Z,101319.88
2019-06-27T06:31:07.432Z,101330.84
2019-06-27T06:36:09.536Z,101324.20
2019-06-27T06:41:11.403Z,101313.06
2019-06-27T06:46:21.595Z,101318.41
2019-06-27T06:51:27.033Z,101314.65
2019-06-27T06:56:28.844Z,101331.22
2019-06-27T07:01:30.791Z,101306.41
2019-06-27T07:06:32.712Z,101306.08
2019-06-27T07:11:34.473Z,101311.02
2019-06-27T07:16:36.348Z,101317.95
2019-06-27T07:21:38.234Z,101320.70
2019-06-27T07:26:40.098Z,101331.05
2019-06-27T07:31:41.981Z,101321.95
2019-06-27T07:36:43.804Z,101324.47
2019-06-27T07:41:45.624Z,101313.08
2019-06-27T07:46:47.455Z,101315.28
2019-06-27T07:51:50.988Z,101310.67
2019-06-27T07:56:52.817Z,101311.75
2019-06-27T08:01:54.674Z,101313.95
2019-06-27T08:06:56.512Z,101311.33
2019-06-27T08:11:58.424Z,101310.60
2019-06-27T08:17:00.202Z,101303.70
2019-06-27T08:22:02.116Z,101300.42
2019-06-27T08:27:05.434Z,101300.29
2019-06-27T08:32:07.566Z,101305.42
2019-06-27T08:37:09.603Z,101303.95
2019-06-27T08:42:12.413Z,101294.20
2019-06-27T08:47:14.331Z,101295.77
2019-06-27T08:52:16.149Z,101292.96
2019-06-27T08:57:17.996Z,101292.08
2019-06-27T09:02:19.796Z,101288.45
2019-06-27T09:07:21.672Z,101286.36
2019-06-27T09:12:23.893Z,101292.30
2019-06-27T09:17:25.732Z,101290.59
2019-06-27T09:22:27.698Z,101294.06
2019-06-27T09:27:29.553Z,101286.69
2019-06-27T09:32:31.339Z,101279.63
2019-06-27T09:37:34.359Z,101282.48
2019-06-27T09:42:36.326Z,101277.25
2019-06-27T09:47:38.149Z,101276.94
2019-06-27T09:52:39.957Z,101266.34
2019-06-27T09:57:41.879Z,101282.13
2019-06-27T10:02:43.673Z,101278.70
2019-06-27T10:07:47.560Z,101270.78
2019-06-27T10:12:49.616Z,101260.77
2019-06-27T10:17:51.538Z,101259.94
2019-06-27T10:22:53.571Z,101254.74
2019-06-27T10:27:55.475Z,101260.06
2019-06-27T10:32:59.733Z,101264.77
2019-06-27T10:38:01.133Z,101246.30
2019-06-27T10:43:03.032Z,101242.27
2019-06-27T10:48:04.892Z,101238.88
2019-06-27T10:53:06.694Z,101240.98
2019-06-27T10:58:08.542Z,101231.06
2019-06-27T11:03:15.346Z,101234.94
2019-06-27T11:08:14.019Z,101237.69
2019-06-27T11:13:15.892Z,101231.46
2019-06-27T11:18:21.147Z,101233.02
2019-06-27T11:23:21.424Z,101216.89
2019-06-27T11:28:23.242Z,101213.63
2019-06-27T11:33:32.264Z,101213.96
2019-06-27T11:38:28.819Z,101216.84
2019-06-27T11:43:30.646Z,101208.08
2019-06-27T11:48:32.631Z,101209.07
2019-06-27T11:53:34.456Z,101206.93
2019-06-27T11:58:36.330Z,101208.05
2019-06-27T12:03:48.707Z,101195.89
2019-06-27T12:08:42.203Z,101201.87
2019-06-27T12:13:45.185Z,101196.89
2019-06-27T12:18:47.019Z,101197.67
2019-06-27T12:23:48.941Z,101192.91
2019-06-27T12:28:50.912Z,101187.84
2019-06-27T12:34:06.391Z,101186.42
2019-06-27T12:38:56.539Z,101186.97
2019-06-27T12:43:58.341Z,101181.52
2019-06-27T12:49:00.174Z,101181.02
2019-06-27T12:54:03.690Z,101167.65
2019-06-27T12:59:05.606Z,101168.16
2019-06-27T13:04:22.298Z,101157.15
2019-06-27T13:09:11.188Z,101153.56
2019-06-27T13:14:13.111Z,101152.64
2019-06-27T13:19:16.305Z,101149.87
2019-06-27T13:24:18.110Z,101137.80
2019-06-27T13:29:20.220Z,101148.00
2019-06-27T13:34:39.057Z,101143.48
2019-06-27T13:39:27.189Z,101148.47
2019-06-27T13:44:29.682Z,101146.41
2019-06-27T13:49:31.474Z,101135.92
2019-06-27T13:54:33.313Z,101138.39
2019-06-27T13:59:35.416Z,101125.99
2019-06-27T14:04:37.411Z,101118.52
2019-06-27T14:09:52.253Z,101118.83
2019-06-27T14:14:58.884Z,101123.75
2019-06-27T14:19:49.888Z,101112.69
2019-06-27T14:24:50.535Z,101100.08
2019-06-27T14:29:52.313Z,101106.81
2019-06-27T14:34:54.258Z,101095.00
2019-06-27T14:45:55.269Z,101097.05
2019-06-27T14:50:57.127Z,101086.59
2019-06-27T14:55:58.947Z,101097.80
2019-06-27T15:01:04.558Z,101090.08
2019-06-27T15:06:04.634Z,101082.11
2019-06-27T15:11:09.111Z,101089.28
2019-06-27T15:16:12.471Z,101082.03
2019-06-27T15:21:15.427Z,101081.84
2019-06-27T15:26:17.388Z,101072.00
2019-06-27T15:31:22.270Z,101062.47
2019-06-27T15:36:22.982Z,101060.97
2019-06-27T15:41:24.839Z,101063.29
2019-06-27T15:46:26.719Z,101060.60
2019-06-27T15:51:28.593Z,101069.08
2019-06-27T15:56:31.769Z,101067.23
2019-06-27T16:01:33.624Z,101056.67
2019-06-27T16:06:36.647Z,101062.62
2019-06-27T16:11:38.595Z,101047.88
2019-06-27T16:16:40.715Z,101047.37
2019-06-27T16:21:42.575Z,101042.32
2019-06-27T16:26:44.611Z,101048.05
2019-06-27T16:31:46.438Z,101034.41
2019-06-27T16:36:48.424Z,101041.45
2019-06-27T16:41:50.251Z,101044.48
2019-06-27T16:46:52.153Z,101046.79
2019-06-27T16:51:54.606Z,101042.20
2019-06-27T16:56:56.762Z,101049.53
2019-06-27T17:01:58.619Z,101044.25
2019-06-27T17:07:00.444Z,101050.18
2019-06-27T17:12:02.401Z,101051.83
2019-06-27T17:17:04.250Z,101052.42
2019-06-27T17:22:06.169Z,101055.58
2019-06-27T17:27:08.068Z,101051.23
2019-06-27T17:32:10.007Z,101058.50
2019-06-27T17:37:11.912Z,101063.64
2019-06-27T17:42:16.312Z,101069.23
2019-06-27T17:47:19.653Z,101065.91
2019-06-27T17:52:23.138Z,101064.71
2019-06-27T17:57:26.487Z,101069.00
2019-06-27T18:02:30.978Z,101083.73
2019-06-27T18:07:34.742Z,101063.89
2019-06-27T18:12:37.825Z,101070.31
2019-06-27T18:17:40.773Z,101082.48
2019-06-27T18:22:44.839Z,101081.69
2019-06-27T18:33:31.468Z,101076.59
2019-06-27T18:38:33.282Z,101075.45
2019-06-27T18:43:35.115Z,101070.91
2019-06-27T18:48:36.955Z,101082.38
2019-06-27T18:53:39.056Z,101061.66
2019-06-27T18:58:40.960Z,101069.20
2019-06-27T19:03:42.762Z,101070.98
2019-06-27T19:08:44.643Z,101077.05
2019-06-27T19:13:46.449Z,101086.58
2019-06-27T19:18:55.496Z,101088.34
2019-06-27T19:24:09.671Z,101096.34
2019-06-27T19:29:11.497Z,101104.34
2019-06-27T19:34:13.298Z,101111.98
2019-06-27T19:39:15.164Z,101108.61
2019-06-27T19:44:17.149Z,101130.42
2019-06-27T19:49:19.956Z,101137.34
2019-06-27T19:54:21.716Z,101161.83
2019-06-27T19:59:25.550Z,101155.17
2019-06-27T20:04:33.816Z,101160.36
2019-06-27T20:09:35.800Z,101178.27
2019-06-27T20:14:41.324Z,101184.91
2019-06-27T20:19:45.333Z,101188.48
2019-06-27T20:24:47.913Z,101187.38
2019-06-27T20:29:49.914Z,101183.91
2019-06-27T20:34:53.821Z,101178.72
2019-06-27T20:39:57.662Z,101188.64
2019-06-27T20:45:01.296Z,101192.73
2019-06-27T20:50:06.363Z,101198.86
2019-06-27T20:55:10.472Z,101207.78
2019-06-27T21:00:14.926Z,101210.33
2019-06-27T21:05:19.056Z,101212.83
2019-06-27T21:10:23.572Z,101215.56
2019-06-27T21:15:28.139Z,101213.78
2019-06-27T21:20:32.576Z,101222.14
2019-06-27T21:25:36.987Z,101226.59
2019-06-27T21:30:39.127Z,101221.45
2019-06-27T21:35:41.094Z,101217.52
2019-06-27T21:40:44.901Z,101223.16
2019-06-27T21:45:48.534Z,101228.45
2019-06-27T21:50:53.455Z,101230.27
2019-06-27T21:55:57.571Z,101241.86
2019-06-27T22:01:03.333Z,101233.48
2019-06-27T22:06:07.722Z,101238.75
2019-06-27T22:11:11.644Z,101247.27
2019-06-27T22:16:14.583Z,101253.27
2019-06-27T22:21:17.807Z,101262.16
2019-06-27T22:26:19.961Z,101264.44
2019-06-27T22:31:21.831Z,101267.34
2019-06-27T22:36:24.922Z,101270.18
2019-06-27T22:46:54.003Z,101267.67
2019-06-27T22:52:22.150Z,101262.54
2019-06-27T22:57:23.977Z,101262.78
2019-06-27T23:02:25.815Z,101277.05
2019-06-27T23:07:27.715Z,101271.83
2019-06-27T23:12:29.574Z,101273.70
2019-06-27T23:17:31.433Z,101280.62
2019-06-27T23:22:33.389Z,101283.98
2019-06-27T23:27:35.341Z,101285.95
2019-06-27T23:32:37.148Z,101286.97
2019-06-27T23:37:39.086Z,101284.36
2019-06-27T23:42:40.943Z,101290.08
2019-06-27T23:47:42.854Z,101295.20
2019-06-27T23:52:44.658Z,101290.98
2019-06-27T23:57:46.462Z,101292.35
